sensor_id;sensor_type;location;lat;lon;timestamp;P1;durP1;ratioP1;P2;durP2;ratioP2
15110;SDS011;7656;51.954;7.998;2023-04-15T00:02:17;5.00;;;4.27;;
15110;SDS011;7656;51.954;7.998;2023-04-15T00:06:39;6.03;;;4.50;;
15110;SDS011;7656;51.954;7.998;2023-04-15T00:11:00;8.63;;;5.33;;
15110;SDS011;7656;51.954;7.998;2023-04-15T00:15:24;5.73;;;4.30;;
15110;SDS011;7656;51.954;7.998;2023-04-15T00:19:46;5.80;;;5.03;;
15110;SDS011;7656;51.954;7.998;2023-04-15T00:24:07;6.60;;;4.97;;
15110;SDS011;7656;51.954;7.998;2023-04-15T00:28:28;7.13;;;4.80;;
15110;SDS011;7656;51.954;7.998;2023-04-15T00:32:51;6.13;;;4.83;;
15110;SDS011;7656;51.954;7.998;2023-04-15T00:37:15;7.83;;;4.73;;
15110;SDS011;7656;51.954;7.998;2023-04-15T00:41:36;7.27;;;4.40;;
15110;SDS011;7656;51.954;7.998;2023-04-15T00:45:59;6.17;;;4.60;;
15110;SDS011;7656;51.954;7.998;2023-04-15T00:50:23;5.00;;;4.27;;
15110;SDS011;7656;51.954;7.998;2023-04-15T00:54:44;5.93;;;4.13;;
15110;SDS011;7656;51.954;7.998;2023-04-15T00:59:05;7.50;;;4.33;;
15110;SDS011;7656;51.954;7.998;2023-04-15T01:03:28;7.00;;;4.97;;
15110;SDS011;7656;51.954;7.998;2023-04-15T01:07:49;6.67;;;4.67;;
15110;SDS011;7656;51.954;7.998;2023-04-15T01:12:11;5.53;;;4.57;;
15110;SDS011;7656;51.954;7.998;2023-04-15T01:16:35;6.30;;;4.33;;
15110;SDS011;7656;51.954;7.998;2023-04-15T01:21:02;7.67;;;4.60;;
15110;SDS011;7656;51.954;7.998;2023-04-15T01:25:31;5.80;;;4.47;;
15110;SDS011;7656;51.954;7.998;2023-04-15T01:29:54;6.13;;;4.50;;
15110;SDS011;7656;51.954;7.998;2023-04-15T01:34:15;7.90;;;4.97;;
15110;SDS011;7656;51.954;7.998;2023-04-15T01:38:36;5.47;;;4.33;;
15110;SDS011;7656;51.954;7.998;2023-04-15T01:42:58;5.50;;;4.77;;
15110;SDS011;7656;51.954;7.998;2023-04-15T01:47:19;6.53;;;5.27;;
15110;SDS011;7656;51.954;7.998;2023-04-15T01:51:41;7.00;;;5.13;;
15110;SDS011;7656;51.954;7.998;2023-04-15T01:56:02;5.57;;;4.73;;
15110;SDS011;7656;51.954;7.998;2023-04-15T02:00:24;7.73;;;4.97;;
15110;SDS011;7656;51.954;7.998;2023-04-15T02:04:46;6.27;;;4.90;;
15110;SDS011;7656;51.954;7.998;2023-04-15T02:09:07;6.83;;;4.20;;
15110;SDS011;7656;51.954;7.998;2023-04-15T02:13:28;8.03;;;5.03;;
15110;SDS011;7656;51.954;7.998;2023-04-15T02:17:51;6.07;;;5.07;;
15110;SDS011;7656;51.954;7.998;2023-04-15T02:22:14;5.93;;;4.90;;
15110;SDS011;7656;51.954;7.998;2023-04-15T02:26:40;7.40;;;5.53;;
15110;SDS011;7656;51.954;7.998;2023-04-15T02:31:04;8.43;;;5.00;;
15110;SDS011;7656;51.954;7.998;2023-04-15T02:35:26;9.60;;;5.30;;
15110;SDS011;7656;51.954;7.998;2023-04-15T02:39:47;6.03;;;4.87;;
15110;SDS011;7656;51.954;7.998;2023-04-15T02:44:09;6.23;;;5.03;;
15110;SDS011;7656;51.954;7.998;2023-04-15T02:48:32;6.97;;;5.20;;
15110;SDS011;7656;51.954;7.998;2023-04-15T02:52:53;9.33;;;5.50;;
15110;SDS011;7656;51.954;7.998;2023-04-15T02:57:15;6.20;;;4.90;;
15110;SDS011;7656;51.954;7.998;2023-04-15T03:01:36;6.97;;;5.27;;
15110;SDS011;7656;51.954;7.998;2023-04-15T03:05:57;6.80;;;5.37;;
15110;SDS011;7656;51.954;7.998;2023-04-15T03:10:18;7.00;;;4.83;;
15110;SDS011;7656;51.954;7.998;2023-04-15T03:14:40;6.93;;;5.27;;
15110;SDS011;7656;51.954;7.998;2023-04-15T03:19:02;6.07;;;4.80;;
15110;SDS011;7656;51.954;7.998;2023-04-15T03:23:24;9.27;;;4.97;;
15110;SDS011;7656;51.954;7.998;2023-04-15T03:27:45;8.10;;;4.83;;
15110;SDS011;7656;51.954;7.998;2023-04-15T03:32:07;6.80;;;4.83;;
15110;SDS011;7656;51.954;7.998;2023-04-15T03:36:29;6.07;;;5.03;;
15110;SDS011;7656;51.954;7.998;2023-04-15T03:40:54;7.57;;;5.40;;
15110;SDS011;7656;51.954;7.998;2023-04-15T03:45:15;9.43;;;6.10;;
15110;SDS011;7656;51.954;7.998;2023-04-15T03:49:36;8.47;;;5.50;;
15110;SDS011;7656;51.954;7.998;2023-04-15T03:53:57;6.73;;;5.67;;
15110;SDS011;7656;51.954;7.998;2023-04-15T03:58:18;8.07;;;5.17;;
15110;SDS011;7656;51.954;7.998;2023-04-15T04:02:40;7.80;;;5.37;;
15110;SDS011;7656;51.954;7.998;2023-04-15T04:07:01;7.40;;;5.73;;
15110;SDS011;7656;51.954;7.998;2023-04-15T04:11:22;6.60;;;5.50;;
15110;SDS011;7656;51.954;7.998;2023-04-15T04:15:43;6.63;;;5.93;;
15110;SDS011;7656;51.954;7.998;2023-04-15T04:20:04;8.53;;;5.73;;
15110;SDS011;7656;51.954;7.998;2023-04-15T04:24:26;9.73;;;5.60;;
15110;SDS011;7656;51.954;7.998;2023-04-15T04:28:47;7.63;;;5.70;;
15110;SDS011;7656;51.954;7.998;2023-04-15T04:33:08;7.90;;;6.27;;
15110;SDS011;7656;51.954;7.998;2023-04-15T04:37:29;7.23;;;5.37;;
15110;SDS011;7656;51.954;7.998;2023-04-15T04:41:51;7.20;;;5.27;;
15110;SDS011;7656;51.954;7.998;2023-04-15T04:46:12;7.30;;;6.13;;
15110;SDS011;7656;51.954;7.998;2023-04-15T04:50:33;6.93;;;5.63;;
15110;SDS011;7656;51.954;7.998;2023-04-15T04:54:54;7.70;;;5.77;;
15110;SDS011;7656;51.954;7.998;2023-04-15T04:59:15;7.27;;;5.10;;
15110;SDS011;7656;51.954;7.998;2023-04-15T05:03:36;7.47;;;5.30;;
15110;SDS011;7656;51.954;7.998;2023-04-15T05:07:57;7.67;;;5.60;;
15110;SDS011;7656;51.954;7.998;2023-04-15T05:12:18;7.90;;;5.57;;
15110;SDS011;7656;51.954;7.998;2023-04-15T05:16:40;9.67;;;5.87;;
15110;SDS011;7656;51.954;7.998;2023-04-15T05:21:01;6.90;;;5.33;;
15110;SDS011;7656;51.954;7.998;2023-04-15T05:25:22;7.73;;;5.70;;
15110;SDS011;7656;51.954;7.998;2023-04-15T05:29:43;8.97;;;5.90;;
15110;SDS011;7656;51.954;7.998;2023-04-15T05:34:04;8.47;;;6.30;;
15110;SDS011;7656;51.954;7.998;2023-04-15T05:38:26;9.00;;;5.17;;
15110;SDS011;7656;51.954;7.998;2023-04-15T05:42:47;8.77;;;5.90;;
15110;SDS011;7656;51.954;7.998;2023-04-15T05:47:08;10.87;;;5.93;;
15110;SDS011;7656;51.954;7.998;2023-04-15T05:51:30;6.57;;;5.80;;
15110;SDS011;7656;51.954;7.998;2023-04-15T05:55:51;10.37;;;6.43;;
15110;SDS011;7656;51.954;7.998;2023-04-15T06:00:12;9.67;;;6.53;;
15110;SDS011;7656;51.954;7.998;2023-04-15T06:04:34;11.20;;;6.03;;
15110;SDS011;7656;51.954;7.998;2023-04-15T06:08:56;10.33;;;5.97;;
15110;SDS011;7656;51.954;7.998;2023-04-15T06:13:17;10.33;;;6.50;;
15110;SDS011;7656;51.954;7.998;2023-04-15T06:17:38;11.83;;;6.43;;
15110;SDS011;7656;51.954;7.998;2023-04-15T06:21:59;10.47;;;6.37;;
15110;SDS011;7656;51.954;7.998;2023-04-15T06:26:21;10.97;;;6.50;;
15110;SDS011;7656;51.954;7.998;2023-04-15T06:30:42;9.77;;;6.77;;
15110;SDS011;7656;51.954;7.998;2023-04-15T06:35:03;10.40;;;7.47;;
15110;SDS011;7656;51.954;7.998;2023-04-15T06:39:24;8.87;;;6.87;;
15110;SDS011;7656;51.954;7.998;2023-04-15T06:43:46;10.27;;;7.43;;
15110;SDS011;7656;51.954;7.998;2023-04-15T06:48:07;10.87;;;7.50;;
15110;SDS011;7656;51.954;7.998;2023-04-15T06:52:28;12.07;;;7.43;;
15110;SDS011;7656;51.954;7.998;2023-04-15T06:56:49;13.47;;;7.47;;
15110;SDS011;7656;51.954;7.998;2023-04-15T07:01:11;13.47;;;8.23;;
15110;SDS011;7656;51.954;7.998;2023-04-15T07:05:33;9.90;;;7.00;;
15110;SDS011;7656;51.954;7.998;2023-04-15T07:09:54;12.80;;;8.37;;
15110;SDS011;7656;51.954;7.998;2023-04-15T07:14:15;12.07;;;8.47;;
15110;SDS011;7656;51.954;7.998;2023-04-15T07:18:37;11.27;;;8.90;;
15110;SDS011;7656;51.954;7.998;2023-04-15T07:22:58;11.17;;;8.40;;
15110;SDS011;7656;51.954;7.998;2023-04-15T07:27:19;13.17;;;10.20;;
15110;SDS011;7656;51.954;7.998;2023-04-15T07:31:40;13.87;;;10.03;;
15110;SDS011;7656;51.954;7.998;2023-04-15T07:36:01;12.73;;;9.63;;
15110;SDS011;7656;51.954;7.998;2023-04-15T07:40:22;14.57;;;10.50;;
15110;SDS011;7656;51.954;7.998;2023-04-15T07:44:43;16.67;;;11.07;;
15110;SDS011;7656;51.954;7.998;2023-04-15T07:49:05;14.13;;;10.10;;
15110;SDS011;7656;51.954;7.998;2023-04-15T07:53:26;11.67;;;8.60;;
15110;SDS011;7656;51.954;7.998;2023-04-15T07:57:48;12.70;;;9.23;;
15110;SDS011;7656;51.954;7.998;2023-04-15T08:02:10;12.83;;;8.07;;
15110;SDS011;7656;51.954;7.998;2023-04-15T08:06:31;10.20;;;7.57;;
15110;SDS011;7656;51.954;7.998;2023-04-15T08:10:52;11.17;;;7.50;;
15110;SDS011;7656;51.954;7.998;2023-04-15T08:15:13;9.43;;;7.70;;
15110;SDS011;7656;51.954;7.998;2023-04-15T08:19:34;11.33;;;6.97;;
15110;SDS011;7656;51.954;7.998;2023-04-15T08:23:55;9.00;;;6.87;;
15110;SDS011;7656;51.954;7.998;2023-04-15T08:28:16;11.47;;;7.33;;
15110;SDS011;7656;51.954;7.998;2023-04-15T08:32:38;10.27;;;6.17;;
15110;SDS011;7656;51.954;7.998;2023-04-15T08:36:59;7.70;;;5.77;;
15110;SDS011;7656;51.954;7.998;2023-04-15T08:41:21;8.53;;;5.73;;
15110;SDS011;7656;51.954;7.998;2023-04-15T08:45:44;7.90;;;5.60;;
15110;SDS011;7656;51.954;7.998;2023-04-15T08:50:08;10.87;;;5.90;;
15110;SDS011;7656;51.954;7.998;2023-04-15T08:54:31;8.17;;;5.67;;
15110;SDS011;7656;51.954;7.998;2023-04-15T08:58:53;8.37;;;5.30;;
15110;SDS011;7656;51.954;7.998;2023-04-15T09:03:15;9.00;;;5.63;;
15110;SDS011;7656;51.954;7.998;2023-04-15T09:07:37;8.50;;;5.80;;
15110;SDS011;7656;51.954;7.998;2023-04-15T09:11:58;10.63;;;5.90;;
15110;SDS011;7656;51.954;7.998;2023-04-15T09:16:21;7.40;;;5.37;;
15110;SDS011;7656;51.954;7.998;2023-04-15T09:20:42;6.90;;;5.47;;
15110;SDS011;7656;51.954;7.998;2023-04-15T09:25:03;8.80;;;5.37;;
15110;SDS011;7656;51.954;7.998;2023-04-15T09:29:48;6.90;;;5.57;;
15110;SDS011;7656;51.954;7.998;2023-04-15T09:34:10;5.47;;;4.83;;
15110;SDS011;7656;51.954;7.998;2023-04-15T09:38:32;6.57;;;5.43;;
15110;SDS011;7656;51.954;7.998;2023-04-15T09:42:56;7.10;;;4.27;;
15110;SDS011;7656;51.954;7.998;2023-04-15T09:47:30;6.30;;;4.83;;
15110;SDS011;7656;51.954;7.998;2023-04-15T09:51:56;6.67;;;4.67;;
15110;SDS011;7656;51.954;7.998;2023-04-15T09:56:19;8.13;;;4.90;;
15110;SDS011;7656;51.954;7.998;2023-04-15T10:00:42;5.83;;;4.30;;
15110;SDS011;7656;51.954;7.998;2023-04-15T10:05:03;4.67;;;3.77;;
15110;SDS011;7656;51.954;7.998;2023-04-15T10:09:26;4.47;;;3.60;;
15110;SDS011;7656;51.954;7.998;2023-04-15T10:13:48;5.60;;;3.77;;
15110;SDS011;7656;51.954;7.998;2023-04-15T10:18:13;4.27;;;3.00;;
15110;SDS011;7656;51.954;7.998;2023-04-15T10:22:39;7.10;;;3.50;;
15110;SDS011;7656;51.954;7.998;2023-04-15T10:27:04;3.97;;;3.27;;
15110;SDS011;7656;51.954;7.998;2023-04-15T10:31:26;4.57;;;3.03;;
15110;SDS011;7656;51.954;7.998;2023-04-15T10:35:49;4.93;;;3.77;;
15110;SDS011;7656;51.954;7.998;2023-04-15T10:40:25;6.80;;;3.27;;
15110;SDS011;7656;51.954;7.998;2023-04-15T10:44:51;2.77;;;2.47;;
15110;SDS011;7656;51.954;7.998;2023-04-15T10:49:17;3.20;;;2.80;;
15110;SDS011;7656;51.954;7.998;2023-04-15T10:53:44;4.10;;;3.37;;
15110;SDS011;7656;51.954;7.998;2023-04-15T10:58:06;4.30;;;2.70;;
15110;SDS011;7656;51.954;7.998;2023-04-15T11:02:46;3.07;;;2.63;;
15110;SDS011;7656;51.954;7.998;2023-04-15T11:12:06;3.17;;;2.53;;
15110;SDS011;7656;51.954;7.998;2023-04-15T11:16:29;3.43;;;2.80;;
15110;SDS011;7656;51.954;7.998;2023-04-15T11:20:54;3.03;;;2.70;;
15110;SDS011;7656;51.954;7.998;2023-04-15T11:25:36;3.77;;;2.70;;
15110;SDS011;7656;51.954;7.998;2023-04-15T11:29:58;3.03;;;2.70;;
15110;SDS011;7656;51.954;7.998;2023-04-15T11:34:22;2.77;;;2.23;;
15110;SDS011;7656;51.954;7.998;2023-04-15T11:38:44;3.00;;;2.70;;
15110;SDS011;7656;51.954;7.998;2023-04-15T11:47:40;2.50;;;2.10;;
15110;SDS011;7656;51.954;7.998;2023-04-15T11:52:09;3.23;;;2.63;;
15110;SDS011;7656;51.954;7.998;2023-04-15T11:56:31;2.00;;;1.87;;
15110;SDS011;7656;51.954;7.998;2023-04-15T12:00:53;2.63;;;2.40;;
15110;SDS011;7656;51.954;7.998;2023-04-15T12:05:17;3.23;;;2.47;;
15110;SDS011;7656;51.954;7.998;2023-04-15T12:09:38;2.87;;;2.10;;
15110;SDS011;7656;51.954;7.998;2023-04-15T12:14:10;2.97;;;2.13;;
15110;SDS011;7656;51.954;7.998;2023-04-15T12:18:50;2.53;;;2.20;;
15110;SDS011;7656;51.954;7.998;2023-04-15T12:23:19;2.20;;;2.00;;
15110;SDS011;7656;51.954;7.998;2023-04-15T12:27:40;2.27;;;1.93;;
15110;SDS011;7656;51.954;7.998;2023-04-15T12:32:08;2.20;;;2.00;;
15110;SDS011;7656;51.954;7.998;2023-04-15T12:36:35;2.50;;;2.07;;
15110;SDS011;7656;51.954;7.998;2023-04-15T12:40:57;4.93;;;2.20;;
15110;SDS011;7656;51.954;7.998;2023-04-15T12:45:18;2.63;;;2.20;;
15110;SDS011;7656;51.954;7.998;2023-04-15T12:49:39;3.10;;;2.37;;
15110;SDS011;7656;51.954;7.998;2023-04-15T12:54:00;2.00;;;1.90;;
15110;SDS011;7656;51.954;7.998;2023-04-15T12:58:21;2.00;;;1.80;;
15110;SDS011;7656;51.954;7.998;2023-04-15T13:02:43;2.53;;;2.30;;
15110;SDS011;7656;51.954;7.998;2023-04-15T13:07:04;2.57;;;2.10;;
15110;SDS011;7656;51.954;7.998;2023-04-15T13:11:26;2.10;;;1.90;;
15110;SDS011;7656;51.954;7.998;2023-04-15T13:15:50;2.40;;;2.20;;
15110;SDS011;7656;51.954;7.998;2023-04-15T13:20:11;2.57;;;2.30;;
15110;SDS011;7656;51.954;7.998;2023-04-15T13:24:32;2.40;;;2.13;;
15110;SDS011;7656;51.954;7.998;2023-04-15T13:28:53;3.97;;;2.83;;
15110;SDS011;7656;51.954;7.998;2023-04-15T13:33:15;2.83;;;2.40;;
15110;SDS011;7656;51.954;7.998;2023-04-15T13:37:37;2.77;;;2.40;;
15110;SDS011;7656;51.954;7.998;2023-04-15T13:41:58;2.50;;;2.30;;
15110;SDS011;7656;51.954;7.998;2023-04-15T13:46:20;2.93;;;2.20;;
15110;SDS011;7656;51.954;7.998;2023-04-15T13:50:41;2.33;;;2.13;;
15110;SDS011;7656;51.954;7.998;2023-04-15T13:55:04;2.93;;;2.43;;
15110;SDS011;7656;51.954;7.998;2023-04-15T13:59:26;2.27;;;2.10;;
15110;SDS011;7656;51.954;7.998;2023-04-15T14:03:47;1.80;;;1.70;;
15110;SDS011;7656;51.954;7.998;2023-04-15T14:08:08;3.23;;;2.07;;
15110;SDS011;7656;51.954;7.998;2023-04-15T14:12:29;2.40;;;2.20;;
15110;SDS011;7656;51.954;7.998;2023-04-15T14:16:50;2.40;;;2.20;;
15110;SDS011;7656;51.954;7.998;2023-04-15T14:21:12;2.47;;;2.00;;
15110;SDS011;7656;51.954;7.998;2023-04-15T14:25:33;1.97;;;1.87;;
15110;SDS011;7656;51.954;7.998;2023-04-15T14:29:54;2.13;;;1.77;;
15110;SDS011;7656;51.954;7.998;2023-04-15T14:34:17;2.13;;;1.93;;
15110;SDS011;7656;51.954;7.998;2023-04-15T14:38:38;1.97;;;1.87;;
15110;SDS011;7656;51.954;7.998;2023-04-15T14:42:59;2.37;;;2.00;;
15110;SDS011;7656;51.954;7.998;2023-04-15T14:47:20;2.50;;;2.00;;
15110;SDS011;7656;51.954;7.998;2023-04-15T14:51:41;2.43;;;2.23;;
15110;SDS011;7656;51.954;7.998;2023-04-15T14:56:02;2.53;;;2.33;;
15110;SDS011;7656;51.954;7.998;2023-04-15T15:00:24;2.10;;;1.90;;
15110;SDS011;7656;51.954;7.998;2023-04-15T15:04:45;2.63;;;2.40;;
15110;SDS011;7656;51.954;7.998;2023-04-15T15:09:06;2.37;;;2.00;;
15110;SDS011;7656;51.954;7.998;2023-04-15T15:13:27;2.93;;;2.20;;
15110;SDS011;7656;51.954;7.998;2023-04-15T15:17:48;4.10;;;2.50;;
15110;SDS011;7656;51.954;7.998;2023-04-15T15:22:10;3.30;;;2.77;;
15110;SDS011;7656;51.954;7.998;2023-04-15T15:26:31;4.40;;;2.97;;
15110;SDS011;7656;51.954;7.998;2023-04-15T15:30:52;4.67;;;3.37;;
15110;SDS011;7656;51.954;7.998;2023-04-15T15:35:13;3.47;;;3.13;;
15110;SDS011;7656;51.954;7.998;2023-04-15T15:39:34;4.50;;;2.90;;
15110;SDS011;7656;51.954;7.998;2023-04-15T15:43:56;4.67;;;3.30;;
15110;SDS011;7656;51.954;7.998;2023-04-15T15:48:17;5.37;;;3.00;;
15110;SDS011;7656;51.954;7.998;2023-04-15T15:52:38;4.00;;;3.07;;
15110;SDS011;7656;51.954;7.998;2023-04-15T15:56:59;3.67;;;3.33;;
15110;SDS011;7656;51.954;7.998;2023-04-15T16:01:21;3.53;;;3.23;;
15110;SDS011;7656;51.954;7.998;2023-04-15T16:05:42;5.53;;;3.87;;
15110;SDS011;7656;51.954;7.998;2023-04-15T16:10:03;5.47;;;4.00;;
15110;SDS011;7656;51.954;7.998;2023-04-15T16:14:25;5.47;;;3.47;;
15110;SDS011;7656;51.954;7.998;2023-04-15T16:18:46;7.53;;;3.73;;
15110;SDS011;7656;51.954;7.998;2023-04-15T16:23:11;6.07;;;3.80;;
15110;SDS011;7656;51.954;7.998;2023-04-15T16:27:36;5.27;;;3.53;;
15110;SDS011;7656;51.954;7.998;2023-04-15T16:31:57;4.03;;;3.63;;
15110;SDS011;7656;51.954;7.998;2023-04-15T16:36:18;6.23;;;3.93;;
15110;SDS011;7656;51.954;7.998;2023-04-15T16:40:40;12.63;;;7.20;;
15110;SDS011;7656;51.954;7.998;2023-04-15T16:45:01;5.33;;;4.37;;
15110;SDS011;7656;51.954;7.998;2023-04-15T16:49:22;10.80;;;4.70;;
15110;SDS011;7656;51.954;7.998;2023-04-15T16:53:44;5.13;;;4.63;;
15110;SDS011;7656;51.954;7.998;2023-04-15T16:58:05;5.90;;;4.30;;
15110;SDS011;7656;51.954;7.998;2023-04-15T17:02:26;6.63;;;4.37;;
15110;SDS011;7656;51.954;7.998;2023-04-15T17:06:48;5.50;;;4.17;;
15110;SDS011;7656;51.954;7.998;2023-04-15T17:11:10;9.73;;;4.20;;
15110;SDS011;7656;51.954;7.998;2023-04-15T17:15:31;6.00;;;4.37;;
15110;SDS011;7656;51.954;7.998;2023-04-15T17:19:52;6.43;;;4.10;;
15110;SDS011;7656;51.954;7.998;2023-04-15T17:24:13;6.83;;;4.00;;
15110;SDS011;7656;51.954;7.998;2023-04-15T17:28:34;7.33;;;4.60;;
15110;SDS011;7656;51.954;7.998;2023-04-15T17:32:55;7.17;;;4.57;;
15110;SDS011;7656;51.954;7.998;2023-04-15T17:37:17;6.57;;;4.70;;
15110;SDS011;7656;51.954;7.998;2023-04-15T17:41:38;7.20;;;4.33;;
15110;SDS011;7656;51.954;7.998;2023-04-15T17:45:59;9.00;;;5.07;;
15110;SDS011;7656;51.954;7.998;2023-04-15T17:50:20;7.17;;;5.37;;
15110;SDS011;7656;51.954;7.998;2023-04-15T17:54:41;7.50;;;4.80;;
15110;SDS011;7656;51.954;7.998;2023-04-15T17:59:02;8.63;;;5.23;;
15110;SDS011;7656;51.954;7.998;2023-04-15T18:03:23;7.00;;;5.17;;
15110;SDS011;7656;51.954;7.998;2023-04-15T18:07:45;10.50;;;5.73;;
15110;SDS011;7656;51.954;7.998;2023-04-15T18:12:06;9.00;;;5.13;;
15110;SDS011;7656;51.954;7.998;2023-04-15T18:16:28;10.57;;;5.00;;
15110;SDS011;7656;51.954;7.998;2023-04-15T18:20:49;7.70;;;5.80;;
15110;SDS011;7656;51.954;7.998;2023-04-15T18:25:10;10.17;;;5.93;;
15110;SDS011;7656;51.954;7.998;2023-04-15T18:29:32;10.37;;;6.03;;
15110;SDS011;7656;51.954;7.998;2023-04-15T18:33:54;6.87;;;4.90;;
15110;SDS011;7656;51.954;7.998;2023-04-15T18:38:15;10.43;;;6.27;;
15110;SDS011;7656;51.954;7.998;2023-04-15T18:42:36;10.93;;;5.77;;
15110;SDS011;7656;51.954;7.998;2023-04-15T18:46:57;7.80;;;5.73;;
15110;SDS011;7656;51.954;7.998;2023-04-15T18:51:19;7.77;;;5.97;;
15110;SDS011;7656;51.954;7.998;2023-04-15T18:55:40;8.43;;;6.27;;
15110;SDS011;7656;51.954;7.998;2023-04-15T19:00:01;12.07;;;6.40;;
15110;SDS011;7656;51.954;7.998;2023-04-15T19:04:22;10.30;;;7.00;;
15110;SDS011;7656;51.954;7.998;2023-04-15T19:08:44;14.57;;;7.40;;
15110;SDS011;7656;51.954;7.998;2023-04-15T19:13:05;12.37;;;6.70;;
15110;SDS011;7656;51.954;7.998;2023-04-15T19:17:26;12.27;;;7.47;;
15110;SDS011;7656;51.954;7.998;2023-04-15T19:21:47;9.93;;;6.70;;
15110;SDS011;7656;51.954;7.998;2023-04-15T19:26:10;13.33;;;7.80;;
15110;SDS011;7656;51.954;7.998;2023-04-15T19:30:31;38.70;;;18.20;;
15110;SDS011;7656;51.954;7.998;2023-04-15T19:34:52;14.67;;;8.10;;
15110;SDS011;7656;51.954;7.998;2023-04-15T19:39:14;14.00;;;7.80;;
15110;SDS011;7656;51.954;7.998;2023-04-15T19:43:35;15.37;;;7.40;;
15110;SDS011;7656;51.954;7.998;2023-04-15T19:47:57;14.70;;;7.93;;
15110;SDS011;7656;51.954;7.998;2023-04-15T19:52:18;13.40;;;8.30;;
15110;SDS011;7656;51.954;7.998;2023-04-15T19:56:39;12.17;;;7.23;;
15110;SDS011;7656;51.954;7.998;2023-04-15T20:01:00;13.17;;;8.50;;
15110;SDS011;7656;51.954;7.998;2023-04-15T20:05:21;15.53;;;8.40;;
15110;SDS011;7656;51.954;7.998;2023-04-15T20:09:43;13.23;;;8.27;;
15110;SDS011;7656;51.954;7.998;2023-04-15T20:14:04;13.77;;;9.33;;
15110;SDS011;7656;51.954;7.998;2023-04-15T20:18:25;14.03;;;9.43;;
15110;SDS011;7656;51.954;7.998;2023-04-15T20:22:47;14.00;;;9.03;;
15110;SDS011;7656;51.954;7.998;2023-04-15T20:27:09;15.53;;;9.37;;
15110;SDS011;7656;51.954;7.998;2023-04-15T20:31:30;15.63;;;10.63;;
15110;SDS011;7656;51.954;7.998;2023-04-15T20:35:51;16.30;;;9.73;;
15110;SDS011;7656;51.954;7.998;2023-04-15T20:40:13;15.50;;;9.43;;
15110;SDS011;7656;51.954;7.998;2023-04-15T20:44:37;15.77;;;9.97;;
15110;SDS011;7656;51.954;7.998;2023-04-15T20:48:59;18.13;;;10.87;;
15110;SDS011;7656;51.954;7.998;2023-04-15T20:53:20;19.07;;;10.93;;
15110;SDS011;7656;51.954;7.998;2023-04-15T20:57:41;19.10;;;10.47;;
15110;SDS011;7656;51.954;7.998;2023-04-15T21:02:02;17.07;;;10.67;;
15110;SDS011;7656;51.954;7.998;2023-04-15T21:06:24;18.53;;;11.30;;
15110;SDS011;7656;51.954;7.998;2023-04-15T21:10:46;18.23;;;10.70;;
15110;SDS011;7656;51.954;7.998;2023-04-15T21:15:07;19.50;;;11.23;;
15110;SDS011;7656;51.954;7.998;2023-04-15T21:19:29;19.47;;;11.57;;
15110;SDS011;7656;51.954;7.998;2023-04-15T21:23:50;18.50;;;11.33;;
15110;SDS011;7656;51.954;7.998;2023-04-15T21:28:11;20.40;;;12.10;;
15110;SDS011;7656;51.954;7.998;2023-04-15T21:32:32;23.63;;;11.33;;
15110;SDS011;7656;51.954;7.998;2023-04-15T21:36:53;19.50;;;12.40;;
15110;SDS011;7656;51.954;7.998;2023-04-15T21:41:14;18.57;;;11.90;;
15110;SDS011;7656;51.954;7.998;2023-04-15T21:45:35;24.03;;;12.23;;
15110;SDS011;7656;51.954;7.998;2023-04-15T21:49:59;19.97;;;11.87;;
15110;SDS011;7656;51.954;7.998;2023-04-15T21:54:20;22.13;;;12.20;;
15110;SDS011;7656;51.954;7.998;2023-04-15T21:58:41;21.13;;;11.07;;
15110;SDS011;7656;51.954;7.998;2023-04-15T22:03:02;21.93;;;12.37;;
15110;SDS011;7656;51.954;7.998;2023-04-15T22:07:23;22.00;;;13.40;;
15110;SDS011;7656;51.954;7.998;2023-04-15T22:11:44;25.60;;;12.73;;
15110;SDS011;7656;51.954;7.998;2023-04-15T22:16:06;24.43;;;12.00;;
15110;SDS011;7656;51.954;7.998;2023-04-15T22:20:27;18.23;;;12.17;;
15110;SDS011;7656;51.954;7.998;2023-04-15T22:24:49;22.63;;;12.87;;
15110;SDS011;7656;51.954;7.998;2023-04-15T22:29:10;24.33;;;13.20;;
15110;SDS011;7656;51.954;7.998;2023-04-15T22:33:31;22.33;;;14.23;;
15110;SDS011;7656;51.954;7.998;2023-04-15T22:37:53;27.00;;;13.10;;
15110;SDS011;7656;51.954;7.998;2023-04-15T22:42:14;26.90;;;13.17;;
15110;SDS011;7656;51.954;7.998;2023-04-15T22:46:36;23.57;;;15.23;;
15110;SDS011;7656;51.954;7.998;2023-04-15T22:50:57;19.67;;;12.53;;
15110;SDS011;7656;51.954;7.998;2023-04-15T22:55:18;26.73;;;14.47;;
15110;SDS011;7656;51.954;7.998;2023-04-15T22:59:40;24.43;;;13.17;;
15110;SDS011;7656;51.954;7.998;2023-04-15T23:04:01;24.40;;;13.23;;
15110;SDS011;7656;51.954;7.998;2023-04-15T23:08:22;23.67;;;13.67;;
15110;SDS011;7656;51.954;7.998;2023-04-15T23:12:43;24.73;;;13.83;;
15110;SDS011;7656;51.954;7.998;2023-04-15T23:17:04;23.13;;;13.83;;
15110;SDS011;7656;51.954;7.998;2023-04-15T23:21:25;24.83;;;14.03;;
15110;SDS011;7656;51.954;7.998;2023-04-15T23:25:47;27.87;;;15.67;;
15110;SDS011;7656;51.954;7.998;2023-04-15T23:30:08;28.67;;;15.33;;
15110;SDS011;7656;51.954;7.998;2023-04-15T23:34:30;26.70;;;14.77;;
15110;SDS011;7656;51.954;7.998;2023-04-15T23:38:51;28.20;;;15.37;;
15110;SDS011;7656;51.954;7.998;2023-04-15T23:43:12;30.60;;;15.87;;
15110;SDS011;7656;51.954;7.998;2023-04-15T23:47:33;32.27;;;14.60;;
15110;SDS011;7656;51.954;7.998;2023-04-15T23:51:54;26.57;;;15.17;;
15110;SDS011;7656;51.954;7.998;2023-04-15T23:56:16;26.27;;;15.37;;
